Terminal Aerodrome Forecast
Issued by NWS Charleston, WV

Current Version | Previous Version | Graphics & Text | Print | Product List | Glossary On
Versions: 1 2 3 4 5 6 7 8 9 10 11 12 13 14 15 16 17 18 19 20 21 22 23 24 25 26 27 28 29 30
000
FTUS41 KRLX 120500
TAFBKW
TAF
KBKW 120527Z 1206/1306 34005KT 3SM -DZ BR OVC003
     FM120800 VRB03KT 1SM -DZ BR OVC001
     FM121600 VRB03KT 3SM BR OVC005
     FM121800 35004KT P6SM OVC010
     FM130200 08004KT P6SM BKN010
     FM130500 13005KT 6SM SHRA BR BKN010=

USA.gov is the U.S. government's official web portal to all federal, state and local government web resources and services.